Time;durP1;ratioP1;P1;durP2;ratioP2;P2;SDS_P1;SDS_P2;PMS_P1;PMS_P2;Temp;Humidity;BMP_temperature;BMP_pressure;BME280_temperature;BME280_humidity;BME280_pressure;Samples;Min_cycle;Max_cycle;Signal;HPM_P1;HPM_P2
2024/02/17 00:02:07;;;;;;;;;2.33;2.33;;;;;-147.14;100.00;58812.66;5051181;28;45630;-46
2024/02/17 00:04:32;;;;;;;;;5.67;3.00;;;;;-147.14;100.00;58812.66;5039409;28;45567;-45
2024/02/17 00:06:57;;;;;;;;;4.00;2.33;;;;;-147.14;100.00;58812.66;5038541;28;75495;-46
2024/02/17 00:09:23;;;;;;;;;4.00;2.00;;;;;-147.14;100.00;58812.66;5038667;28;45372;-44
2024/02/17 00:11:48;;;;;;;;;3.67;2.67;;;;;-147.14;100.00;58812.66;5039034;28;45347;-48
2024/02/17 00:14:14;;;;;;;;;3.00;3.00;;;;;-147.14;100.00;58812.66;5048203;28;60237;-44
2024/02/17 00:16:41;;;;;;;;;4.67;4.00;;;;;-147.14;100.00;58812.66;5051048;28;46154;-45
2024/02/17 00:19:06;;;;;;;;;3.00;2.00;;;;;-147.14;100.00;58812.66;5038901;28;45241;-45
2024/02/17 00:21:31;;;;;;;;;4.00;4.00;;;;;-147.14;100.00;58812.66;5039606;28;45436;-47
2024/02/17 00:23:57;;;;;;;;;4.00;3.00;;;;;-147.14;100.00;58812.66;5038069;28;69651;-44
2024/02/17 00:26:22;;;;;;;;;5.00;4.00;;;;;-147.14;100.00;58812.66;5043150;28;72962;-48
2024/02/17 00:28:48;;;;;;;;;4.00;2.67;;;;;-147.14;100.00;58812.66;5059492;28;45384;-46
2024/02/17 00:31:13;;;;;;;;;2.00;2.00;;;;;-147.14;100.00;58812.66;5057168;28;45242;-47
2024/02/17 00:33:38;;;;;;;;;6.00;4.00;;;;;-147.14;100.00;58812.66;5058699;28;70099;-45
2024/02/17 00:36:04;;;;;;;;;2.00;2.00;;;;;-147.14;100.00;58812.66;5056564;28;75663;-47
2024/02/17 00:38:30;;;;;;;;;3.00;2.00;;;;;-147.14;100.00;58812.66;5058317;28;45431;-44
2024/02/17 00:40:56;;;;;;;;;9.33;3.00;;;;;-147.14;100.00;58812.66;5056395;28;69178;-45
2024/02/17 00:43:22;;;;;;;;;5.33;3.33;;;;;-147.14;100.00;58812.66;5058922;28;45331;-46
2024/02/17 00:45:48;;;;;;;;;7.33;4.00;;;;;-147.14;100.00;58812.66;5045970;28;45788;-47
2024/02/17 00:48:14;;;;;;;;;4.00;4.00;;;;;-147.14;100.00;58812.66;5048145;28;45372;-45
2024/02/17 00:50:39;;;;;;;;;3.33;2.00;;;;;-147.14;100.00;58812.66;5048001;28;45599;-47
2024/02/17 00:53:04;;;;;;;;;1.33;1.33;;;;;-147.14;100.00;58812.66;5045208;28;70420;-49
2024/02/17 00:55:30;;;;;;;;;5.33;3.33;;;;;-147.14;100.00;58812.66;5046446;28;71303;-49
2024/02/17 00:57:55;;;;;;;;;2.33;1.00;;;;;-147.14;100.00;58812.66;5040950;28;73306;-49
2024/02/17 01:00:21;;;;;;;;;2.33;2.00;;;;;-147.14;100.00;58812.66;5028567;28;68291;-48
2024/02/17 01:02:47;;;;;;;;;4.00;3.00;;;;;-147.14;100.00;58812.66;5027716;28;45860;-47
2024/02/17 01:05:13;;;;;;;;;6.00;3.00;;;;;-147.14;100.00;58812.66;5042089;28;47138;-46
2024/02/17 01:07:38;;;;;;;;;2.00;2.00;;;;;-147.14;100.00;58812.66;5031354;28;45233;-48
2024/02/17 01:10:04;;;;;;;;;6.00;2.00;;;;;-147.14;100.00;58812.66;5046336;28;66759;-45
2024/02/17 01:12:29;;;;;;;;;3.33;2.00;;;;;-147.14;100.00;58812.66;5059072;28;45337;-46
2024/02/17 01:14:55;;;;;;;;;2.33;2.00;;;;;-147.14;100.00;58812.66;5047880;28;46231;-46
2024/02/17 01:17:20;;;;;;;;;6.33;3.00;;;;;-147.14;100.00;58812.66;5034334;28;53853;-48
2024/02/17 01:19:47;;;;;;;;;3.00;3.00;;;;;-147.14;100.00;58812.66;5042684;28;45352;-45
2024/02/17 01:22:12;;;;;;;;;3.67;3.67;;;;;-147.14;100.00;58812.66;5041323;28;45680;-46
2024/02/17 01:24:37;;;;;;;;;2.33;2.33;;;;;-147.14;100.00;58812.66;5052749;28;67197;-45
2024/02/17 01:27:06;;;;;;;;;3.00;3.00;;;;;-147.14;100.00;58812.66;5040186;28;45328;-46
2024/02/17 01:29:32;;;;;;;;;3.67;3.00;;;;;-147.14;100.00;58812.66;5041788;28;45392;-45
2024/02/17 01:31:57;;;;;;;;;2.33;2.33;;;;;-147.14;100.00;58812.66;5048712;28;45170;-48
2024/02/17 01:34:23;;;;;;;;;2.33;2.33;;;;;-147.14;100.00;58812.66;5057850;28;45246;-44
2024/02/17 01:36:49;;;;;;;;;2.00;2.00;;;;;-147.14;100.00;58812.66;5057384;28;72403;-45
2024/02/17 01:39:15;;;;;;;;;4.00;3.00;;;;;-147.14;100.00;58812.66;5028088;28;45336;-45
2024/02/17 01:41:40;;;;;;;;;2.00;1.00;;;;;-147.14;100.00;58812.66;5046610;28;64607;-44
2024/02/17 01:44:06;;;;;;;;;3.00;3.00;;;;;-147.14;100.00;58812.66;5056182;28;75559;-45
2024/02/17 01:46:32;;;;;;;;;2.00;2.00;;;;;-147.14;100.00;58812.66;5041700;28;45347;-48
2024/02/17 01:48:57;;;;;;;;;1.00;1.00;;;;;-147.14;100.00;58812.66;5053549;28;45427;-46
2024/02/17 01:51:23;;;;;;;;;2.00;2.00;;;;;-147.14;100.00;58812.66;5040270;28;69249;-45
2024/02/17 01:53:49;;;;;;;;;10.00;3.00;;;;;-147.14;100.00;58812.66;5033369;28;46679;-48
2024/02/17 01:56:17;;;;;;;;;3.33;3.33;;;;;-147.14;100.00;58812.66;5020560;28;73119;-45
2024/02/17 01:58:43;;;;;;;;;4.33;4.00;;;;;-147.14;100.00;58812.66;5035946;28;45502;-49
2024/02/17 02:01:08;;;;;;;;;2.67;2.67;;;;;-147.14;100.00;58812.66;5013889;28;45334;-49
2024/02/17 02:03:35;;;;;;;;;3.00;2.00;;;;;-147.14;100.00;58812.66;5042671;28;46774;-45
2024/02/17 02:06:02;;;;;;;;;4.00;2.33;;;;;-147.14;100.00;58812.66;5041398;28;45463;-46
2024/02/17 02:08:27;;;;;;;;;4.00;2.67;;;;;-147.14;100.00;58812.66;5040898;28;45660;-45
2024/02/17 02:10:55;;;;;;;;;4.67;3.00;;;;;-147.14;100.00;58812.66;5038567;28;70129;-48
2024/02/17 02:13:20;;;;;;;;;4.00;2.67;;;;;-147.14;100.00;58812.66;5052137;28;46614;-49
2024/02/17 02:15:46;;;;;;;;;3.00;3.00;;;;;-147.14;100.00;58812.66;5041903;28;45240;-50
2024/02/17 02:18:11;;;;;;;;;3.33;3.33;;;;;-147.14;100.00;58812.66;5041777;28;45747;-47
2024/02/17 02:20:39;;;;;;;;;3.67;2.00;;;;;-147.14;100.00;58812.66;5052806;28;45365;-48
2024/02/17 02:23:05;;;;;;;;;3.00;2.00;;;;;-147.14;100.00;58812.66;5024350;28;45535;-50
2024/02/17 02:25:32;;;;;;;;;1.67;1.33;;;;;-147.14;100.00;58812.66;5037849;28;45620;-49
2024/02/17 02:27:57;;;;;;;;;3.33;2.67;;;;;-147.14;100.00;58812.66;5052545;28;45418;-48
2024/02/17 02:30:22;;;;;;;;;2.00;2.00;;;;;-147.14;100.00;58812.66;5058105;28;45248;-49
2024/02/17 02:32:48;;;;;;;;;2.00;2.00;;;;;-147.14;100.00;58812.66;5057429;28;45335;-45
2024/02/17 02:35:14;;;;;;;;;2.67;2.00;;;;;-147.14;100.00;58812.66;5057870;28;45490;-49
2024/02/17 02:37:39;;;;;;;;;6.67;2.33;;;;;-147.14;100.00;58812.66;5041443;28;45307;-46
2024/02/17 02:40:06;;;;;;;;;4.67;2.67;;;;;-147.14;100.00;58812.66;5057950;28;45337;-46
2024/02/17 02:42:31;;;;;;;;;3.00;3.00;;;;;-147.14;100.00;58812.66;5038662;28;45682;-47
2024/02/17 02:44:57;;;;;;;;;2.00;2.00;;;;;-147.14;100.00;58812.66;5039798;28;45304;-45
2024/02/17 02:47:22;;;;;;;;;3.00;2.00;;;;;-147.14;100.00;58812.66;5034074;28;65617;-47
2024/02/17 02:49:47;;;;;;;;;5.00;2.00;;;;;-147.14;100.00;58812.66;5038516;28;57661;-47
2024/02/17 02:52:16;;;;;;;;;1.00;1.00;;;;;-147.14;100.00;58812.66;5040294;28;46136;-46
2024/02/17 02:54:41;;;;;;;;;2.00;2.00;;;;;-147.14;100.00;58812.66;5048644;28;61579;-48
2024/02/17 02:57:07;;;;;;;;;2.00;2.00;;;;;-147.14;100.00;58812.66;5039912;28;45312;-45
2024/02/17 02:59:32;;;;;;;;;1.00;1.00;;;;;-147.14;100.00;58812.66;5040161;28;45406;-44
2024/02/17 03:01:58;;;;;;;;;2.00;2.00;;;;;-147.14;100.00;58812.66;5039808;28;47037;-47
2024/02/17 03:04:23;;;;;;;;;2.33;1.33;;;;;-147.14;100.00;58812.66;5057738;28;45323;-48
2024/02/17 03:06:48;;;;;;;;;6.00;1.00;;;;;-147.14;100.00;58812.66;5056454;28;66235;-49
2024/02/17 03:09:14;;;;;;;;;4.00;2.00;;;;;-147.14;100.00;58812.66;5050482;28;45646;-47
2024/02/17 03:11:41;;;;;;;;;3.00;1.00;;;;;-147.14;100.00;58812.66;5039857;28;47002;-45
2024/02/17 03:14:07;;;;;;;;;3.00;2.00;;;;;-147.14;100.00;58812.66;5045648;28;45316;-46
2024/02/17 03:16:32;;;;;;;;;4.00;1.00;;;;;-147.14;100.00;58812.66;5039803;28;45364;-48
2024/02/17 03:18:58;;;;;;;;;3.00;2.00;;;;;-147.14;100.00;58812.66;5032704;28;66202;-45
2024/02/17 03:21:23;;;;;;;;;2.00;1.67;;;;;-147.14;100.00;58812.66;5039488;28;59907;-46
2024/02/17 03:23:48;;;;;;;;;1.00;1.00;;;;;-147.14;100.00;58812.66;5038871;28;61358;-47
2024/02/17 03:26:14;;;;;;;;;1.00;1.00;;;;;-147.14;100.00;58812.66;5039474;28;45146;-46
2024/02/17 03:28:39;;;;;;;;;4.33;1.33;;;;;-147.14;100.00;58812.66;5056784;28;64035;-48
2024/02/17 03:31:05;;;;;;;;;1.67;1.67;;;;;-147.14;100.00;58812.66;5039760;28;66917;-47
2024/02/17 03:33:30;;;;;;;;;1.00;1.00;;;;;-147.14;100.00;58812.66;5056560;28;45660;-46
2024/02/17 03:35:56;;;;;;;;;3.33;1.67;;;;;-147.14;100.00;58812.66;5038339;28;66380;-47
2024/02/17 03:38:21;;;;;;;;;3.00;1.00;;;;;-147.14;100.00;58812.66;5056738;28;45389;-47
2024/02/17 03:40:46;;;;;;;;;3.00;1.67;;;;;-147.14;100.00;58812.66;5044758;28;72779;-45
2024/02/17 03:43:12;;;;;;;;;1.00;1.00;;;;;-147.14;100.00;58812.66;5044709;28;45309;-48
2024/02/17 03:45:37;;;;;;;;;2.00;2.00;;;;;-147.14;100.00;58812.66;5044390;28;66133;-48
2024/02/17 03:48:03;;;;;;;;;1.67;1.67;;;;;-147.14;100.00;58812.66;5020898;28;45352;-46
2024/02/17 03:50:28;;;;;;;;;1.00;1.00;;;;;-147.14;100.00;58812.66;5037975;28;46207;-47
2024/02/17 03:52:53;;;;;;;;;1.33;1.33;;;;;-147.14;100.00;58812.66;5054051;28;66529;-47
2024/02/17 03:55:19;;;;;;;;;4.00;2.00;;;;;-147.14;100.00;58812.66;5037574;28;62383;-45
2024/02/17 03:57:44;;;;;;;;;2.00;2.00;;;;;-147.14;100.00;58812.66;5038236;28;45497;-47
2024/02/17 04:00:13;;;;;;;;;3.00;1.67;;;;;-147.14;100.00;58812.66;5039053;28;56525;-47
2024/02/17 04:02:41;;;;;;;;;1.00;1.00;;;;;-147.14;100.00;58812.66;5041851;28;45284;-45
2024/02/17 04:05:08;;;;;;;;;2.33;1.33;;;;;-147.14;100.00;58812.66;5042035;28;45300;-49
2024/02/17 04:07:33;;;;;;;;;3.00;1.00;;;;;-147.14;100.00;58812.66;5041958;28;45356;-46
2024/02/17 04:09:59;;;;;;;;;2.33;1.00;;;;;-147.14;100.00;58812.66;5041774;28;45664;-49
2024/02/17 04:12:24;;;;;;;;;1.67;1.00;;;;;-147.14;100.00;58812.66;5046127;28;61991;-50
2024/02/17 04:14:49;;;;;;;;;5.67;1.00;;;;;-147.14;100.00;58812.66;5048747;28;45455;-45
2024/02/17 04:17:15;;;;;;;;;1.00;1.00;;;;;-147.14;100.00;58812.66;5040872;28;54611;-45
2024/02/17 04:19:40;;;;;;;;;1.00;1.00;;;;;-147.14;100.00;58812.66;5041270;28;63926;-44
2024/02/17 04:22:05;;;;;;;;;3.00;3.00;;;;;-147.14;100.00;58812.66;5047992;28;66216;-44
2024/02/17 04:24:31;;;;;;;;;2.00;2.00;;;;;-147.14;100.00;58812.66;5048000;28;45363;-48
2024/02/17 04:26:57;;;;;;;;;2.00;2.00;;;;;-147.14;100.00;58812.66;5059018;28;61889;-48
2024/02/17 04:29:22;;;;;;;;;3.00;2.00;;;;;-147.14;100.00;58812.66;5047460;28;51380;-45
2024/02/17 04:31:47;;;;;;;;;4.00;3.67;;;;;-147.14;100.00;58812.66;5046898;28;71249;-46
2024/02/17 04:34:14;;;;;;;;;3.67;2.00;;;;;-147.14;100.00;58812.66;5058344;28;59193;-45
2024/02/17 04:36:39;;;;;;;;;3.00;2.67;;;;;-147.14;100.00;58812.66;5059272;28;45281;-47
2024/02/17 04:39:05;;;;;;;;;2.00;2.00;;;;;-147.14;100.00;58812.66;5057915;28;60466;-46
2024/02/17 04:41:30;;;;;;;;;3.00;3.00;;;;;-147.14;100.00;58812.66;5040188;28;45408;-46
2024/02/17 04:43:55;;;;;;;;;2.00;2.00;;;;;-147.14;100.00;58812.66;5059070;28;48571;-45
2024/02/17 04:46:21;;;;;;;;;4.33;3.00;;;;;-147.14;100.00;58812.66;5036618;28;58579;-44
2024/02/17 04:48:46;;;;;;;;;3.67;2.00;;;;;-147.14;100.00;58812.66;5041444;28;73407;-47
2024/02/17 04:51:11;;;;;;;;;1.00;1.00;;;;;-147.14;100.00;58812.66;5056453;28;65148;-47
2024/02/17 04:53:37;;;;;;;;;1.00;1.00;;;;;-147.14;100.00;58812.66;5035409;28;66249;-46
2024/02/17 04:56:02;;;;;;;;;2.00;2.00;;;;;-147.14;100.00;58812.66;5042277;28;61500;-48
2024/02/17 04:58:27;;;;;;;;;2.33;2.33;;;;;-147.14;100.00;58812.66;5041861;28;45763;-47
2024/02/17 05:00:53;;;;;;;;;2.67;1.00;;;;;-147.14;100.00;58812.66;5042200;28;71830;-48
2024/02/17 05:03:18;;;;;;;;;3.67;3.00;;;;;-147.14;100.00;58812.66;5040961;28;67392;-49
2024/02/17 05:05:44;;;;;;;;;3.67;1.00;;;;;-147.14;100.00;58812.66;5039671;28;45670;-46
2024/02/17 05:08:09;;;;;;;;;3.00;2.00;;;;;-147.14;100.00;58812.66;5048802;28;46283;-46
2024/02/17 05:10:34;;;;;;;;;3.00;3.00;;;;;-147.14;100.00;58812.66;5042322;28;47892;-46
2024/02/17 05:13:00;;;;;;;;;5.33;4.00;;;;;-147.14;100.00;58812.66;5041687;28;45312;-49
2024/02/17 05:15:26;;;;;;;;;4.00;4.00;;;;;-147.14;100.00;58812.66;5041782;28;65165;-49
2024/02/17 05:17:51;;;;;;;;;4.00;4.00;;;;;-147.14;100.00;58812.66;5041891;28;46168;-44
2024/02/17 05:20:16;;;;;;;;;4.00;4.00;;;;;-147.14;100.00;58812.66;5041642;28;62678;-46
2024/02/17 05:22:43;;;;;;;;;7.00;6.00;;;;;-147.14;100.00;58812.66;5041854;28;45256;-46
2024/02/17 05:25:08;;;;;;;;;6.67;5.67;;;;;-147.14;100.00;58812.66;5042946;28;45209;-45
2024/02/17 05:27:34;;;;;;;;;11.00;6.00;;;;;-147.14;100.00;58812.66;5040513;28;45299;-48
2024/02/17 05:29:59;;;;;;;;;6.00;6.00;;;;;-147.14;100.00;58812.66;5056796;28;58706;-45
2024/02/17 05:32:25;;;;;;;;;7.33;6.00;;;;;-147.14;100.00;58812.66;5058616;28;65754;-49
2024/02/17 05:34:51;;;;;;;;;13.67;8.00;;;;;-147.14;100.00;58812.66;5040120;28;45413;-48
2024/02/17 05:37:16;;;;;;;;;8.00;6.00;;;;;-147.14;100.00;58812.66;5056807;28;75557;-46
2024/02/17 05:39:41;;;;;;;;;6.33;6.00;;;;;-147.14;100.00;58812.66;5057965;28;72484;-45
2024/02/17 05:42:07;;;;;;;;;5.33;5.33;;;;;-147.14;100.00;58812.66;5056614;28;69406;-45
2024/02/17 05:44:32;;;;;;;;;6.33;6.33;;;;;-147.14;100.00;58812.66;5053879;28;69456;-48
2024/02/17 05:46:57;;;;;;;;;4.67;4.67;;;;;-147.14;100.00;58812.66;5039584;28;73765;-44
2024/02/17 05:49:23;;;;;;;;;4.00;4.00;;;;;-147.14;100.00;58812.66;5024977;28;69363;-46
2024/02/17 05:51:49;;;;;;;;;6.00;5.00;;;;;-147.14;100.00;58812.66;5059876;28;45416;-45
2024/02/17 05:54:16;;;;;;;;;6.00;4.67;;;;;-147.14;100.00;58812.66;5024803;28;45463;-44
2024/02/17 05:56:41;;;;;;;;;9.00;5.33;;;;;-147.14;100.00;58812.66;5058940;28;45268;-49
2024/02/17 05:59:06;;;;;;;;;4.67;3.33;;;;;-147.14;100.00;58812.66;5053926;28;72265;-45
2024/02/17 06:01:32;;;;;;;;;8.33;6.33;;;;;-147.14;100.00;58812.66;5058245;28;63953;-46
2024/02/17 06:03:57;;;;;;;;;12.00;5.33;;;;;-147.14;100.00;58812.66;5055215;28;45765;-45
2024/02/17 06:06:22;;;;;;;;;6.00;4.00;;;;;-147.14;100.00;58812.66;5035952;28;73438;-48
2024/02/17 06:08:48;;;;;;;;;8.33;5.33;;;;;-147.14;100.00;58812.66;5043624;28;45289;-44
2024/02/17 06:11:14;;;;;;;;;4.33;4.33;;;;;-147.14;100.00;58812.66;5047994;28;69317;-47
2024/02/17 06:13:40;;;;;;;;;6.00;6.00;;;;;-147.14;100.00;58812.66;5040841;28;45450;-45
2024/02/17 06:16:06;;;;;;;;;5.00;5.00;;;;;-147.14;100.00;58812.66;5039933;28;46317;-47
2024/02/17 06:21:20;;;;;;;;;5.67;5.00;;;;;-147.14;100.00;58812.66;5039767;28;45169;-47
2024/02/17 06:23:47;;;;;;;;;6.33;5.00;;;;;-147.14;100.00;58812.66;5039817;28;45301;-48
2024/02/17 06:26:26;;;;;;;;;8.00;5.67;;;;;-147.14;100.00;58812.66;5041554;28;46351;-47
2024/02/17 06:28:52;;;;;;;;;5.00;5.00;;;;;-147.14;100.00;58812.66;5047325;28;45387;-46
2024/02/17 06:31:19;;;;;;;;;10.00;7.00;;;;;-147.14;100.00;58812.66;5055866;28;45351;-47
2024/02/17 06:33:44;;;;;;;;;10.00;6.00;;;;;-147.14;100.00;58812.66;5039052;28;45357;-45
2024/02/17 06:36:10;;;;;;;;;6.00;6.00;;;;;-147.14;100.00;58812.66;5056513;28;45241;-47
2024/02/17 06:38:35;;;;;;;;;5.67;5.33;;;;;-147.14;100.00;58812.66;5031173;28;45423;-45
2024/02/17 06:41:02;;;;;;;;;6.67;5.00;;;;;-147.14;100.00;58812.66;5055127;28;45439;-45
2024/02/17 06:43:27;;;;;;;;;12.33;7.00;;;;;-147.14;100.00;58812.66;5057019;28;45304;-45
2024/02/17 06:45:53;;;;;;;;;11.67;8.00;;;;;-147.14;100.00;58812.66;5026635;28;46155;-45
2024/02/17 06:48:18;;;;;;;;;7.67;6.00;;;;;-147.14;100.00;58812.66;5039507;28;58824;-44
2024/02/17 06:50:43;;;;;;;;;8.00;7.33;;;;;-147.14;100.00;58812.66;5040379;28;69419;-45
2024/02/17 06:53:08;;;;;;;;;5.00;5.00;;;;;-147.14;100.00;58812.66;5039209;28;69536;-45
2024/02/17 06:55:34;;;;;;;;;5.00;5.00;;;;;-147.14;100.00;58812.66;5049265;28;74330;-46
2024/02/17 06:58:00;;;;;;;;;6.67;5.00;;;;;-147.14;100.00;58812.66;5050886;28;45447;-47
2024/02/17 07:00:25;;;;;;;;;10.33;6.33;;;;;-147.14;100.00;58812.66;5040788;28;45520;-45
2024/02/17 07:02:51;;;;;;;;;8.00;7.67;;;;;-147.14;100.00;58812.66;5040422;28;45364;-46
2024/02/17 07:05:16;;;;;;;;;9.00;6.33;;;;;-147.14;100.00;58812.66;5040703;28;46886;-49
2024/02/17 07:07:43;;;;;;;;;5.33;5.33;;;;;-147.14;100.00;58812.66;5040016;28;45339;-45
2024/02/17 07:10:08;;;;;;;;;5.00;4.33;;;;;-147.14;100.00;58812.66;5052134;28;45419;-45
2024/02/17 07:12:34;;;;;;;;;5.67;3.67;;;;;-147.14;100.00;58812.66;5046701;28;45428;-45
2024/02/17 07:15:00;;;;;;;;;5.00;3.00;;;;;-147.14;100.00;58812.66;5044385;28;46883;-46
2024/02/17 07:17:25;;;;;;;;;6.00;4.67;;;;;-147.14;100.00;58812.66;5029273;28;45427;-46
2024/02/17 07:19:51;;;;;;;;;6.67;5.00;;;;;-147.14;100.00;58812.66;5037435;28;60934;-49
2024/02/17 07:22:16;;;;;;;;;9.33;4.00;;;;;-147.14;100.00;58812.66;5038734;28;69082;-47
2024/02/17 07:24:44;;;;;;;;;5.33;5.33;;;;;-147.14;100.00;58812.66;5039514;28;75666;-45
2024/02/17 07:27:10;;;;;;;;;17.00;17.00;;;;;-147.14;100.00;58812.66;5028989;28;45277;-45
2024/02/17 07:29:37;;;;;;;;;6.67;5.67;;;;;-147.14;100.00;58812.66;5057156;28;45530;-47
2024/02/17 07:32:03;;;;;;;;;17.00;14.33;;;;;-147.14;100.00;58812.66;5039651;28;45332;-47
2024/02/17 07:34:31;;;;;;;;;9.33;8.33;;;;;-147.14;100.00;58812.66;5036488;28;46502;-49
2024/02/17 07:36:56;;;;;;;;;8.33;5.67;;;;;-147.14;100.00;58812.66;5059999;28;45944;-48
2024/02/17 07:39:22;;;;;;;;;8.00;8.00;;;;;-147.14;100.00;58812.66;5057537;28;45257;-48
2024/02/17 07:41:47;;;;;;;;;6.00;6.00;;;;;-147.14;100.00;58812.66;5060574;28;45444;-45
2024/02/17 07:44:14;;;;;;;;;6.00;4.00;;;;;-147.14;100.00;58812.66;5057431;28;51789;-47
2024/02/17 07:46:39;;;;;;;;;2.00;2.00;;;;;-147.14;100.00;58812.66;5049643;28;45478;-47
2024/02/17 07:49:05;;;;;;;;;7.00;6.00;;;;;-147.14;100.00;58812.66;5047703;28;60563;-48
2024/02/17 07:51:31;;;;;;;;;6.33;3.33;;;;;-147.14;100.00;58812.66;5042150;28;45394;-48
2024/02/17 07:53:56;;;;;;;;;4.00;4.00;;;;;-147.14;100.00;58812.66;5045319;28;45486;-45
2024/02/17 07:56:23;;;;;;;;;4.33;4.33;;;;;-147.14;100.00;58812.66;5048273;28;73224;-47
2024/02/17 07:58:48;;;;;;;;;4.00;2.33;;;;;-147.14;100.00;58812.66;5047802;28;45340;-46
2024/02/17 08:01:13;;;;;;;;;3.33;3.33;;;;;-147.14;100.00;58812.66;5048829;28;68911;-44
2024/02/17 08:03:39;;;;;;;;;5.67;5.67;;;;;-147.14;100.00;58812.66;5053541;28;74021;-45
2024/02/17 08:06:04;;;;;;;;;6.33;4.00;;;;;-147.14;100.00;58812.66;5042496;28;45264;-47
2024/02/17 08:08:29;;;;;;;;;4.67;4.67;;;;;-147.14;100.00;58812.66;5053321;28;61352;-46
2024/02/17 08:10:55;;;;;;;;;4.67;4.67;;;;;-147.14;100.00;58812.66;5042468;28;45222;-45
2024/02/17 08:13:22;;;;;;;;;10.67;5.00;;;;;-147.14;100.00;58812.66;5053983;28;45485;-47
2024/02/17 08:15:47;;;;;;;;;7.00;5.00;;;;;-147.14;100.00;58812.66;5042311;28;45535;-47
2024/02/17 08:18:12;;;;;;;;;5.00;5.00;;;;;-147.14;100.00;58812.66;5042699;28;45169;-45
2024/02/17 08:20:38;;;;;;;;;9.00;5.00;;;;;-147.14;100.00;58812.66;5032040;28;63443;-47
2024/02/17 08:23:03;;;;;;;;;4.00;4.00;;;;;-147.14;100.00;58812.66;5039288;28;75481;-45
2024/02/17 08:25:29;;;;;;;;;6.67;5.33;;;;;-147.14;100.00;58812.66;5047808;28;45412;-45
2024/02/17 08:27:55;;;;;;;;;9.00;6.00;;;;;-147.14;100.00;58812.66;5046986;28;45313;-48
2024/02/17 08:30:21;;;;;;;;;7.00;4.67;;;;;-147.14;100.00;58812.66;5059888;28;45314;-45
2024/02/17 08:32:46;;;;;;;;;10.00;7.00;;;;;-147.14;100.00;58812.66;5058327;28;46157;-46
2024/02/17 08:35:12;;;;;;;;;6.00;5.00;;;;;-147.14;100.00;58812.66;5052503;28;45375;-46
2024/02/17 08:37:37;;;;;;;;;6.00;5.00;;;;;-147.14;100.00;58812.66;5053477;28;47664;-48
2024/02/17 08:40:04;;;;;;;;;4.00;4.00;;;;;-147.14;100.00;58812.66;5051912;28;67953;-44
2024/02/17 08:42:30;;;;;;;;;4.00;4.00;;;;;-147.14;100.00;58812.66;5042013;28;46060;-46
2024/02/17 08:44:55;;;;;;;;;5.67;5.00;;;;;-147.14;100.00;58812.66;5053125;28;45647;-45
2024/02/17 08:47:21;;;;;;;;;7.33;5.00;;;;;-147.14;100.00;58812.66;5041080;28;52461;-44
2024/02/17 08:49:47;;;;;;;;;8.00;5.00;;;;;-147.14;100.00;58812.66;5047867;28;45564;-45
2024/02/17 08:52:12;;;;;;;;;14.00;10.33;;;;;-147.14;100.00;58812.66;5047019;28;46959;-44
2024/02/17 08:54:38;;;;;;;;;6.67;3.33;;;;;-147.14;100.00;58812.66;5050303;28;56432;-48
2024/02/17 08:57:03;;;;;;;;;5.67;4.00;;;;;-147.14;100.00;58812.66;5048075;28;45224;-44
2024/02/17 08:59:28;;;;;;;;;8.67;7.33;;;;;-147.14;100.00;58812.66;5042400;28;70614;-47
2024/02/17 09:01:54;;;;;;;;;13.00;8.33;;;;;-147.14;100.00;58812.66;5047952;28;46206;-46
2024/02/17 09:04:19;;;;;;;;;8.67;5.33;;;;;-147.14;100.00;58812.66;5028890;28;60863;-47
2024/02/17 09:06:44;;;;;;;;;6.33;4.33;;;;;-147.14;100.00;58812.66;5040337;28;58267;-46
2024/02/17 09:09:10;;;;;;;;;5.00;5.00;;;;;-147.14;100.00;58812.66;5034230;28;53566;-46
2024/02/17 09:11:35;;;;;;;;;3.00;3.00;;;;;-147.14;100.00;58812.66;5053468;28;71023;-49
2024/02/17 09:14:02;;;;;;;;;4.67;4.67;;;;;-147.14;100.00;58812.66;5036805;28;71643;-47
2024/02/17 09:16:28;;;;;;;;;3.33;2.33;;;;;-147.14;100.00;58812.66;5041632;28;45317;-45
2024/02/17 09:18:53;;;;;;;;;4.00;3.33;;;;;-147.14;100.00;58812.66;5053408;28;45267;-47
2024/02/17 09:21:18;;;;;;;;;4.67;3.00;;;;;-147.14;100.00;58812.66;5040479;28;74466;-48
2024/02/17 09:23:44;;;;;;;;;5.67;4.00;;;;;-147.14;100.00;58812.66;5058340;28;45310;-45
2024/02/17 09:26:09;;;;;;;;;3.67;2.67;;;;;-147.14;100.00;58812.66;5056916;28;65228;-45
2024/02/17 09:28:35;;;;;;;;;4.67;3.00;;;;;-147.14;100.00;58812.66;5040759;28;51497;-45
2024/02/17 09:31:00;;;;;;;;;3.00;3.00;;;;;-147.14;100.00;58812.66;5046519;28;46870;-48
2024/02/17 09:33:28;;;;;;;;;1.67;1.67;;;;;-147.14;100.00;58812.66;5056796;28;71735;-48
2024/02/17 09:35:54;;;;;;;;;7.67;4.00;;;;;-147.14;100.00;58812.66;5041466;28;45277;-46
2024/02/17 09:38:19;;;;;;;;;2.33;2.33;;;;;-147.14;100.00;58812.66;5058139;28;45233;-47
2024/02/17 09:40:45;;;;;;;;;5.00;2.00;;;;;-147.14;100.00;58812.66;5057088;28;68143;-46
2024/02/17 09:43:11;;;;;;;;;3.00;3.00;;;;;-147.14;100.00;58812.66;5057835;28;45332;-47
2024/02/17 09:45:36;;;;;;;;;6.33;2.00;;;;;-147.14;100.00;58812.66;5028831;28;45397;-50
2024/02/17 09:48:02;;;;;;;;;2.67;2.67;;;;;-147.14;100.00;58812.66;5053179;28;70570;-48
2024/02/17 09:50:28;;;;;;;;;4.67;2.33;;;;;-147.14;100.00;58812.66;5041093;28;45408;-46
2024/02/17 09:52:54;;;;;;;;;5.00;2.00;;;;;-147.14;100.00;58812.66;5025268;28;71731;-49
2024/02/17 09:55:21;;;;;;;;;3.67;3.00;;;;;-147.14;100.00;58812.66;5034725;28;45372;-46
2024/02/17 09:57:46;;;;;;;;;1.75;1.00;;;;;-147.14;100.00;58812.66;5040727;28;45371;-47
2024/02/17 10:00:13;;;;;;;;;6.00;1.00;;;;;-147.14;100.00;58812.66;5042647;28;73683;-47
2024/02/17 10:02:40;;;;;;;;;2.00;1.75;;;;;-147.14;100.00;58812.66;5053016;28;45614;-49
2024/02/17 10:05:06;;;;;;;;;1.00;1.00;;;;;-147.14;100.00;58812.66;5042662;28;45415;-51
2024/02/17 10:07:31;;;;;;;;;1.00;1.00;;;;;-147.14;100.00;58812.66;5034329;28;45376;-47
2024/02/17 10:09:58;;;;;;;;;3.75;1.00;;;;;-147.14;100.00;58812.66;5040806;28;73722;-48
2024/02/17 10:12:24;;;;;;;;;2.00;2.00;;;;;-147.14;100.00;58812.66;5045527;28;45261;-46
2024/02/17 10:14:52;;;;;;;;;0.75;0.00;;;;;-147.14;100.00;58812.66;5045444;28;45244;-47
2024/02/17 10:17:20;;;;;;;;;7.00;1.50;;;;;-147.14;100.00;58812.66;5029685;28;45405;-45
2024/02/17 10:19:46;;;;;;;;;2.25;1.00;;;;;-147.14;100.00;58812.66;5045801;28;45328;-46
2024/02/17 10:22:13;;;;;;;;;3.75;2.00;;;;;-147.14;100.00;58812.66;5033364;28;45372;-48
2024/02/17 10:24:38;;;;;;;;;2.25;1.75;;;;;-147.14;100.00;58812.66;5040812;28;45264;-46
2024/02/17 10:27:05;;;;;;;;;5.75;1.50;;;;;-147.14;100.00;58812.66;5059030;28;45574;-47
2024/02/17 10:29:31;;;;;;;;;2.50;2.50;;;;;-147.14;100.00;58812.66;5045486;28;45321;-49
2024/02/17 10:31:58;;;;;;;;;1.50;0.75;;;;;-147.14;100.00;58812.66;5034182;28;45499;-48
2024/02/17 10:34:23;;;;;;;;;3.25;2.00;;;;;-147.14;100.00;58812.66;5034597;28;45334;-46
2024/02/17 10:36:51;;;;;;;;;3.00;2.25;;;;;-147.14;100.00;58812.66;5049702;28;69440;-50
2024/02/17 10:39:17;;;;;;;;;3.00;3.00;;;;;-147.14;100.00;58812.66;5034579;28;45502;-50
2024/02/17 10:41:45;;;;;;;;;1.75;1.75;;;;;-147.14;100.00;58812.66;5046153;28;45494;-47
2024/02/17 10:44:10;;;;;;;;;0.75;0.75;;;;;-147.14;100.00;58812.66;5055942;28;45272;-51
2024/02/17 10:46:35;;;;;;;;;2.75;1.00;;;;;-147.14;100.00;58812.66;5058213;28;58098;-47
2024/02/17 10:49:28;;;;;;;;;5.25;5.25;;;;;-147.14;100.00;58812.66;5038567;28;71423;-49
2024/02/17 10:51:56;;;;;;;;;0.00;0.00;;;;;-147.14;100.00;58812.66;5039579;28;45365;-47
2024/02/17 10:54:41;;;;;;;;;1.00;1.00;;;;;-147.14;100.00;58812.66;5053110;28;45738;-49
2024/02/17 10:57:09;;;;;;;;;0.75;0.00;;;;;-147.14;100.00;58812.66;5037396;28;45373;-49
2024/02/17 10:59:36;;;;;;;;;1.00;0.00;;;;;-147.14;100.00;58812.66;5025447;28;48312;-50
2024/02/17 11:02:01;;;;;;;;;1.00;1.00;;;;;-147.14;100.00;58812.66;5056105;28;64637;-46
2024/02/17 11:04:27;;;;;;;;;2.00;2.00;;;;;-147.14;100.00;58812.66;5039419;28;45632;-47
2024/02/17 11:06:53;;;;;;;;;2.50;1.25;;;;;-147.14;100.00;58812.66;5026900;28;45534;-49